Pagina principale
METAR-TAF:

METAR-TAF

Aeroporti :

Aeroporto di Stoccolma-Arlanda

Stoccolma-Arlanda, Svezia

latitudine: 59-39N, longitudine: 017-57E, altezza: 38 m

Osservazione

Il bollettino è stato emesso 16 minuti fa, alle 20:50 UTC
Vento 10 kt da sud-est
Temperature 4°C
Umidità 87%
Pressione 1022 hPa
Visibilità 10 km o più
Cielo coperto ad un'altezza di 900 ft

METAR: ESSA 222050Z 13010KT 9999 OVC009 04/02 Q1022 R01L/29//95 R08/29//95 R01R/29//95 NOSIG

Ora: 22:06 (21:06 UTC)

Previsione

Il bollettino è stato emesso 3 ore e 36 minuti fa, alle 17:30 UTC
Previsione valida dal 22 alle 18 UTC al 23 alle 18 UTC
Vento 10 kt da sud-est
Visibilità 10 km o più
Nuvoloso ad un'altezza di 1000 ft
Temporaneamente
dal 22 alle 18 UTC al 23 alle 18 UTC
Visibilità: 2000 m
Nuvoloso ad un'altezza di 600 ft
foschia

TAF: ESSA 221730Z 2218/2318 13010KT 9999 BKN010 TEMPO 2218/2318 2000 BR BKN006

Osservazioni e previsioni meteorologiche di più di 4000 aeroporti (messaggi METAR e TAF).

Le stazioni disponibili sono rappresentate dai dischi gialli e rossi sulla carta.

Puntare il mouse per vedere il nome della stazione.

Clicca sopra per visualizzare le osservazioni e previsioni meteorologiche.

Per cambiare la mappa : fare clic sui pulsanti verdi con una croce nera per ingrandire, il pulsante verde con un trattino per diminuire, o sulla freccia verde per le mappe adiacenti.


METAR-TAF: